createdAt,value
2024-03-04T00:00:25.900Z,5.60
2024-03-04T00:06:06.440Z,6.50
2024-03-04T00:12:57.644Z,8.00
2024-03-04T00:16:42.363Z,8.90
2024-03-04T00:19:20.622Z,8.00
2024-03-04T00:21:48.729Z,8.10
2024-03-04T00:24:17.186Z,8.00
2024-03-04T00:26:44.880Z,9.40
2024-03-04T00:29:12.653Z,9.50
2024-03-04T00:31:40.834Z,11.10
2024-03-04T00:34:08.683Z,10.50
2024-03-04T00:36:36.353Z,10.50
2024-03-04T00:39:04.387Z,11.90
2024-03-04T00:41:32.556Z,11.20
2024-03-04T00:44:00.456Z,12.00
2024-03-04T00:46:28.387Z,11.20
2024-03-04T00:48:56.540Z,11.10
2024-03-04T00:51:24.533Z,10.80
2024-03-04T00:53:52.239Z,10.70
2024-03-04T00:56:20.413Z,11.10
2024-03-04T00:58:49.551Z,11.00
2024-03-04T01:01:17.625Z,10.80
2024-03-04T01:03:45.644Z,10.90
2024-03-04T01:06:13.371Z,11.40
2024-03-04T01:08:41.093Z,12.00
2024-03-04T01:11:09.008Z,13.10
2024-03-04T01:13:37.305Z,12.70
2024-03-04T01:16:06.466Z,13.40
2024-03-04T01:18:35.904Z,12.50
2024-03-04T01:21:05.503Z,14.60
2024-03-04T01:23:33.422Z,15.70
2024-03-04T01:26:01.957Z,15.50
2024-03-04T01:28:29.967Z,15.70
2024-03-04T01:30:57.846Z,16.20
2024-03-04T01:33:25.789Z,15.70
2024-03-04T01:35:53.516Z,17.30
2024-03-04T01:38:21.345Z,17.20
2024-03-04T01:40:49.218Z,16.60
2024-03-04T01:43:18.815Z,16.90
2024-03-04T01:45:46.600Z,17.20
2024-03-04T01:48:14.425Z,16.20
2024-03-04T01:50:45.051Z,15.90
2024-03-04T01:53:13.518Z,17.70
2024-03-04T01:55:44.497Z,17.40
2024-03-04T01:58:18.419Z,17.50
2024-03-04T02:00:49.406Z,19.10
2024-03-04T02:03:18.406Z,19.80
2024-03-04T02:05:47.086Z,18.10
2024-03-04T02:08:17.101Z,16.90
2024-03-04T02:10:45.206Z,20.00
2024-03-04T02:13:13.397Z,17.30
2024-03-04T02:15:42.132Z,21.30
2024-03-04T02:18:10.679Z,19.40
2024-03-04T02:20:39.714Z,25.20
2024-03-04T02:23:09.503Z,23.00
2024-03-04T02:25:37.481Z,21.90
2024-03-04T02:28:06.646Z,22.20
2024-03-04T02:30:35.061Z,25.90
2024-03-04T02:33:05.073Z,25.70
2024-03-04T02:35:33.891Z,24.30
2024-03-04T02:38:02.699Z,24.70
2024-03-04T02:40:30.452Z,25.80
2024-03-04T02:42:58.273Z,27.80
2024-03-04T02:45:26.209Z,27.10
2024-03-04T02:47:54.524Z,25.70
2024-03-04T02:50:22.632Z,25.70
2024-03-04T02:52:51.795Z,26.00
2024-03-04T02:55:19.634Z,25.40
2024-03-04T02:57:48.090Z,25.50
2024-03-04T03:00:18.051Z,27.20
2024-03-04T03:02:46.089Z,28.70
2024-03-04T03:05:14.025Z,26.60
2024-03-04T03:07:41.780Z,28.10
2024-03-04T03:10:11.524Z,24.40
2024-03-04T03:12:39.317Z,27.80
2024-03-04T03:15:09.091Z,29.30
2024-03-04T03:17:37.248Z,26.90
2024-03-04T03:20:19.811Z,29.80
2024-03-04T03:22:49.100Z,27.60
2024-03-04T03:25:17.051Z,24.10
2024-03-04T03:27:44.905Z,26.60
2024-03-04T03:30:15.056Z,27.80
2024-03-04T03:32:43.724Z,25.40
2024-03-04T03:35:11.520Z,28.10
2024-03-04T03:37:39.347Z,27.90
2024-03-04T03:40:11.299Z,26.30
2024-03-04T03:42:39.065Z,26.80
2024-03-04T03:45:08.900Z,25.40
2024-03-04T03:47:36.606Z,24.50
2024-03-04T03:50:06.283Z,21.10
2024-03-04T03:52:35.526Z,23.70
2024-03-04T03:55:04.469Z,24.00
2024-03-04T03:57:41.589Z,27.90
2024-03-04T04:00:20.277Z,24.90
2024-03-04T04:02:48.058Z,25.10
2024-03-04T04:05:15.958Z,20.90
2024-03-04T04:07:43.923Z,21.60
2024-03-04T04:10:11.725Z,25.60
2024-03-04T04:12:39.425Z,21.90
2024-03-04T04:15:08.391Z,24.70
2024-03-04T04:17:36.113Z,24.30
2024-03-04T04:20:07.415Z,22.30
2024-03-04T04:22:35.108Z,18.90
2024-03-04T04:25:03.107Z,21.00
2024-03-04T04:27:30.980Z,19.60
2024-03-04T04:29:59.171Z,21.70
2024-03-04T04:32:27.707Z,20.00
2024-03-04T04:34:55.334Z,20.10
2024-03-04T04:37:23.105Z,22.50
2024-03-04T04:39:51.040Z,20.30
2024-03-04T04:42:19.126Z,19.80
2024-03-04T04:44:47.234Z,20.20
2024-03-04T04:47:14.962Z,20.60
2024-03-04T04:49:42.904Z,20.90
2024-03-04T04:52:10.767Z,18.70
2024-03-04T04:54:38.468Z,19.40
2024-03-04T04:57:06.300Z,20.70
2024-03-04T04:59:33.971Z,20.70
2024-03-04T05:02:01.810Z,19.90
2024-03-04T05:04:43.797Z,20.80
2024-03-04T05:07:17.914Z,18.80
2024-03-04T05:09:45.609Z,16.70
2024-03-04T05:12:13.305Z,19.00
2024-03-04T05:14:41.153Z,15.70
2024-03-04T05:17:11.354Z,19.90
2024-03-04T05:19:39.107Z,19.10
2024-03-04T05:22:08.720Z,18.90
2024-03-04T05:24:36.449Z,16.60
2024-03-04T05:27:04.924Z,17.70
2024-03-04T05:29:32.747Z,16.70
2024-03-04T05:32:00.449Z,15.70
2024-03-04T05:34:28.642Z,16.10
2024-03-04T05:36:56.380Z,18.20
2024-03-04T05:39:24.564Z,17.50
2024-03-04T05:41:52.513Z,19.10
2024-03-04T05:44:20.599Z,19.10
2024-03-04T05:46:51.226Z,20.90
2024-03-04T05:49:19.456Z,21.10
2024-03-04T05:51:47.206Z,20.50
2024-03-04T05:54:14.913Z,24.20
2024-03-04T05:56:43.756Z,25.10
2024-03-04T05:59:11.631Z,25.10
2024-03-04T06:01:39.900Z,27.00
2024-03-04T06:04:08.432Z,24.80
2024-03-04T06:06:36.276Z,23.50
2024-03-04T06:09:05.665Z,27.30
2024-03-04T06:11:33.574Z,24.80
2024-03-04T06:14:01.887Z,25.40
2024-03-04T06:16:29.993Z,26.50
2024-03-04T06:18:57.848Z,26.60
2024-03-04T06:21:25.422Z,26.80
2024-03-04T06:23:53.969Z,23.90
2024-03-04T06:26:21.557Z,24.40
2024-03-04T06:28:49.484Z,24.30
2024-03-04T06:31:17.612Z,23.90
2024-03-04T06:33:52.567Z,23.30
2024-03-04T07:12:58.970Z,12.20
2024-03-04T07:23:14.578Z,9.30
2024-03-04T07:38:34.345Z,10.00
2024-03-04T08:17:54.808Z,11.60
2024-03-04T08:20:58.676Z,12.00
2024-03-04T08:32:15.167Z,11.60
2024-03-04T08:38:49.525Z,12.10
2024-03-04T08:50:07.721Z,12.80
2024-03-04T09:15:46.157Z,12.10
2024-03-04T09:27:22.043Z,12.50
2024-03-04T09:33:55.224Z,11.30
2024-03-04T09:37:46.820Z,13.50
2024-03-04T09:45:27.180Z,12.50
2024-03-04T10:34:25.120Z,12.80
2024-03-04T10:41:08.690Z,15.40
2024-03-04T10:54:37.482Z,14.40
2024-03-04T10:57:45.315Z,14.20
2024-03-04T11:01:22.865Z,15.10
2024-03-04T11:15:04.286Z,13.50
2024-03-04T11:24:58.419Z,13.70
2024-03-04T11:32:34.427Z,13.90
2024-03-04T11:47:36.576Z,12.70
2024-03-04T11:57:57.120Z,13.90
2024-03-04T12:12:12.482Z,12.50
2024-03-04T12:17:06.104Z,13.40
2024-03-04T12:36:29.153Z,13.90
2024-03-04T12:40:06.278Z,11.70
2024-03-04T12:50:08.470Z,10.70
2024-03-04T13:00:46.140Z,13.20
2024-03-04T13:06:42.569Z,12.40
2024-03-04T13:19:36.607Z,12.20
2024-03-04T13:35:46.065Z,13.20
2024-03-04T13:38:19.169Z,13.10
2024-03-04T13:41:14.521Z,13.70
2024-03-04T13:44:42.614Z,12.60
2024-03-04T14:01:01.997Z,12.80
2024-03-04T14:20:17.062Z,12.80
2024-03-04T14:23:01.413Z,12.40
2024-03-04T14:25:44.945Z,13.90
2024-03-04T14:28:42.547Z,12.90
2024-03-04T14:31:19.347Z,12.50
2024-03-04T14:48:34.904Z,12.70
2024-03-04T14:51:10.421Z,13.80
2024-03-04T14:54:04.247Z,14.20
2024-03-04T15:08:00.494Z,15.50
2024-03-04T15:21:05.063Z,13.80
2024-03-04T15:31:20.154Z,14.50
2024-03-04T15:34:35.855Z,14.70
2024-03-04T15:37:42.519Z,14.60
2024-03-04T15:44:22.194Z,15.60
2024-03-04T15:57:34.434Z,13.20
2024-03-04T16:07:38.852Z,13.10
2024-03-04T16:10:53.713Z,12.30
2024-03-04T16:13:36.686Z,12.90
2024-03-04T16:16:28.887Z,11.80
2024-03-04T16:19:19.454Z,14.80
2024-03-04T16:22:24.108Z,12.20
2024-03-04T16:26:00.988Z,12.10
2024-03-04T16:32:27.429Z,12.30
2024-03-04T16:35:32.869Z,12.60
2024-03-04T16:49:01.162Z,9.80
2024-03-04T16:52:16.052Z,10.60
2024-03-04T16:58:45.080Z,10.60
2024-03-04T17:02:00.990Z,10.90
2024-03-04T17:05:07.485Z,9.00
2024-03-04T17:30:09.061Z,9.10
2024-03-04T17:33:08.051Z,10.00
2024-03-04T17:36:31.533Z,12.40
2024-03-04T17:47:37.576Z,10.40
2024-03-04T17:54:06.009Z,11.60
2024-03-04T17:57:05.987Z,11.80
2024-03-04T17:59:52.738Z,13.20
2024-03-04T18:05:51.185Z,12.80
2024-03-04T18:12:20.954Z,10.80
2024-03-04T18:18:42.731Z,10.90
2024-03-04T18:21:53.262Z,11.80
2024-03-04T18:25:01.288Z,12.80
2024-03-04T18:27:59.951Z,12.50
2024-03-04T18:31:22.880Z,12.30
2024-03-04T18:34:12.120Z,12.40
2024-03-04T18:36:54.390Z,11.00
2024-03-04T18:43:26.635Z,10.70
2024-03-04T18:46:23.892Z,11.20
2024-03-04T18:50:04.226Z,11.20
2024-03-04T18:53:20.826Z,13.50
2024-03-04T18:56:29.984Z,12.40
2024-03-04T18:59:35.244Z,11.60
2024-03-04T19:02:46.198Z,11.70
2024-03-04T19:09:26.129Z,11.70
2024-03-04T19:12:38.513Z,12.70
2024-03-04T19:16:01.631Z,11.50
2024-03-04T19:19:32.120Z,13.20
2024-03-04T19:22:41.098Z,12.60
2024-03-04T19:25:59.232Z,15.40
2024-03-04T19:29:03.427Z,16.50
2024-03-04T19:32:21.287Z,15.40
2024-03-04T19:35:24.431Z,14.70
2024-03-04T19:41:16.320Z,11.90
2024-03-04T19:53:31.778Z,13.30
2024-03-04T19:56:19.662Z,13.20
2024-03-04T19:59:25.808Z,13.70
2024-03-04T20:02:45.778Z,13.90
2024-03-04T20:09:19.228Z,12.30
2024-03-04T20:12:03.584Z,11.80
2024-03-04T20:14:39.906Z,12.40
2024-03-04T20:28:01.350Z,12.80
2024-03-04T20:31:08.874Z,13.10
2024-03-04T20:34:05.151Z,14.80
2024-03-04T20:36:52.453Z,13.10
2024-03-04T20:39:32.040Z,13.20
2024-03-04T20:42:15.358Z,12.90
2024-03-04T20:45:09.846Z,14.20
2024-03-04T20:47:45.427Z,13.70
2024-03-04T20:50:24.778Z,12.20
2024-03-04T20:53:13.667Z,12.60
2024-03-04T20:55:55.778Z,14.20
2024-03-04T20:58:46.833Z,13.80
2024-03-04T21:01:43.711Z,13.10
2024-03-04T21:04:39.412Z,14.60
2024-03-04T21:07:16.490Z,12.30
2024-03-04T21:10:15.960Z,12.40
2024-03-04T21:13:09.569Z,14.10
2024-03-04T21:15:53.421Z,14.00
2024-03-04T21:26:35.700Z,16.40
2024-03-04T21:29:03.237Z,14.20
2024-03-04T21:32:29.201Z,14.20
2024-03-04T21:35:33.549Z,15.90
2024-03-04T21:45:38.507Z,15.80
2024-03-04T21:52:12.857Z,14.00
2024-03-04T21:55:19.474Z,16.10
2024-03-04T21:58:41.048Z,16.60
2024-03-04T22:02:05.215Z,16.90
2024-03-04T22:12:10.660Z,15.60
2024-03-04T22:19:03.205Z,15.30
2024-03-04T22:25:33.916Z,15.50
2024-03-04T22:32:10.142Z,14.00
2024-03-04T22:38:56.170Z,14.90
2024-03-04T22:42:12.570Z,14.90
2024-03-04T22:45:26.513Z,16.10
2024-03-04T22:51:14.634Z,14.60
2024-03-04T23:02:08.728Z,16.20
2024-03-04T23:09:33.561Z,14.20
2024-03-04T23:15:47.791Z,14.50
2024-03-04T23:19:03.469Z,14.20
2024-03-04T23:25:41.927Z,15.30
2024-03-04T23:28:53.579Z,15.10
2024-03-04T23:44:16.979Z,14.70
2024-03-04T23:47:35.634Z,14.40
2024-03-04T23:50:54.664Z,13.70
